createdAt,value
2023-04-01T00:00:00.701Z,6.6
2023-04-01T00:15:00.751Z,6.6
2023-04-01T00:30:00.689Z,6.5
2023-04-01T00:45:01.029Z,6.4
2023-04-01T01:00:00.703Z,6.3
2023-04-01T01:15:00.691Z,6.2
2023-04-01T01:30:00.777Z,6.2
2023-04-01T01:45:00.674Z,6.1
2023-04-01T02:00:00.749Z,6.0
2023-04-01T02:15:00.682Z,5.8
2023-04-01T02:30:00.759Z,5.7
2023-04-01T02:45:00.749Z,5.6
2023-04-01T03:00:00.702Z,5.5
2023-04-01T03:15:10.588Z,5.3
2023-04-01T03:30:00.691Z,5.2
2023-04-01T03:45:00.676Z,5.2
2023-04-01T04:00:00.819Z,5.2
2023-04-01T04:15:00.689Z,5.1
2023-04-01T04:30:00.710Z,5.1
2023-04-01T04:45:00.691Z,5.0
2023-04-01T05:00:00.699Z,4.9
2023-04-01T05:15:00.742Z,4.9
2023-04-01T05:30:00.702Z,4.9
2023-04-01T05:45:00.701Z,5.2
2023-04-01T06:00:00.710Z,5.4
2023-04-01T06:15:00.660Z,5.8
2023-04-01T06:30:00.762Z,6.2
2023-04-01T06:45:00.715Z,6.6
2023-04-01T07:00:00.710Z,7.6
2023-04-01T07:15:00.695Z,8.7
2023-04-01T07:30:00.689Z,9.8
2023-04-01T07:45:00.742Z,10.5
2023-04-01T08:00:00.699Z,10.8
2023-04-01T08:15:00.712Z,11.0
2023-04-01T08:30:00.724Z,11.2
2023-04-01T08:45:00.701Z,11.5
2023-04-01T09:00:00.734Z,11.8
2023-04-01T09:15:00.722Z,12.2
2023-04-01T09:30:00.701Z,12.6
2023-04-01T09:45:00.726Z,12.8
2023-04-01T10:00:00.816Z,12.9
2023-04-01T10:15:00.708Z,13.1
2023-04-01T10:30:00.774Z,13.2
2023-04-01T10:45:00.704Z,13.3
2023-04-01T11:00:00.760Z,13.4
2023-04-01T11:15:00.705Z,13.4
2023-04-01T11:30:01.027Z,13.6
2023-04-01T11:45:00.720Z,13.8
2023-04-01T12:00:00.827Z,13.9
2023-04-01T12:15:00.719Z,14.0
2023-04-01T12:30:00.725Z,14.1
2023-04-01T12:45:00.749Z,14.1
2023-04-01T13:00:00.856Z,14.2
2023-04-01T13:15:00.699Z,14.3
2023-04-01T13:30:00.684Z,14.3
2023-04-01T13:45:00.694Z,14.3
2023-04-01T14:00:00.789Z,14.3
2023-04-01T14:15:00.704Z,14.4
2023-04-01T14:30:00.689Z,14.6
2023-04-01T14:45:00.717Z,14.7
2023-04-01T15:00:00.778Z,14.8
2023-04-01T15:15:00.703Z,15.0
2023-04-01T15:30:00.755Z,15.1
2023-04-01T15:45:00.720Z,15.1
2023-04-01T16:00:00.810Z,14.9
2023-04-01T16:15:00.714Z,14.7
2023-04-01T16:30:00.733Z,14.6
2023-04-01T16:45:00.696Z,14.3
2023-04-01T17:00:00.790Z,13.4
2023-04-01T17:15:00.699Z,12.7
2023-04-01T17:30:00.779Z,12.3
2023-04-01T17:45:00.713Z,12.0
2023-04-01T18:00:00.753Z,11.6
2023-04-01T18:15:00.713Z,11.1
2023-04-01T18:30:00.787Z,10.8
2023-04-01T18:45:00.707Z,10.5
2023-04-01T19:00:00.755Z,10.2
2023-04-01T19:15:00.713Z,9.9
2023-04-01T19:30:00.761Z,9.7
2023-04-01T19:45:00.702Z,9.3
2023-04-01T20:00:00.683Z,9.0
2023-04-01T20:15:00.682Z,8.8
2023-04-01T20:30:00.790Z,8.7
2023-04-01T20:45:00.678Z,8.5
2023-04-01T21:00:00.803Z,8.4
2023-04-01T21:15:00.694Z,8.3
2023-04-01T21:30:00.792Z,8.2
2023-04-01T21:45:00.705Z,8.2
2023-04-01T22:00:00.737Z,8.1
2023-04-01T22:15:00.710Z,8.0
2023-04-01T22:30:00.778Z,8.0
2023-04-01T22:45:00.691Z,8.0
2023-04-01T23:00:00.736Z,7.9
2023-04-01T23:15:00.723Z,7.7
2023-04-01T23:30:00.814Z,7.6
2023-04-01T23:45:00.680Z,7.4
